Mexico Beach, Florida
Current Conditions -  °F | °C
As of 8:56 PM on Monday 22 Dec 2014 (Local Time) from KTDR Reporting Station
Haze Haze  
Wind Chill: 67°   Ceiling: 2700
Heat Index: 67°   Visibility: 3mi
Dew Point: 67°   Wind: 3mph
Humidity: 100%   Direction: 150°SSE
Pressure: 29.85"   Gusts: NA
Location:  29.95°N, 85.42°W
Report Text: KTDR 230256Z AUTO 15003KT 3SM BR BKN027 20/20 A2985 RMK AO2 LTG DSNT SE-SW SLP112 T01950197 51007
Loading
Personal Weather Stations






























Interactive Weather Map New forecast layout! Learn more

10-Day Weather Forecast

Advertisements
Track Severe Weather on mobile